sensor_id;sensor_type;location;lat;lon;timestamp;P1;durP1;ratioP1;P2;durP2;ratioP2
71856;SDS011;63344;46.980;28.882;2023-08-24T00:02:07;9.02;;;5.72;;
71856;SDS011;63344;46.980;28.882;2023-08-24T00:04:37;8.35;;;5.00;;
71856;SDS011;63344;46.980;28.882;2023-08-24T00:07:08;12.50;;;5.70;;
71856;SDS011;63344;46.980;28.882;2023-08-24T00:09:45;10.73;;;5.55;;
71856;SDS011;63344;46.980;28.882;2023-08-24T00:12:41;11.70;;;6.05;;
71856;SDS011;63344;46.980;28.882;2023-08-24T00:15:18;9.65;;;5.80;;
71856;SDS011;63344;46.980;28.882;2023-08-24T00:17:51;9.35;;;6.00;;
71856;SDS011;63344;46.980;28.882;2023-08-24T00:20:33;10.38;;;5.68;;
71856;SDS011;63344;46.980;28.882;2023-08-24T00:23:17;10.10;;;5.68;;
71856;SDS011;63344;46.980;28.882;2023-08-24T00:26:02;13.30;;;5.75;;
71856;SDS011;63344;46.980;28.882;2023-08-24T00:28:40;9.00;;;5.30;;
71856;SDS011;63344;46.980;28.882;2023-08-24T00:31:17;11.13;;;5.65;;
71856;SDS011;63344;46.980;28.882;2023-08-24T00:33:49;8.52;;;5.82;;
71856;SDS011;63344;46.980;28.882;2023-08-24T00:36:32;9.35;;;6.30;;
71856;SDS011;63344;46.980;28.882;2023-08-24T00:39:08;11.95;;;5.57;;
71856;SDS011;63344;46.980;28.882;2023-08-24T00:41:35;7.93;;;5.40;;
71856;SDS011;63344;46.980;28.882;2023-08-24T00:44:22;8.35;;;6.07;;
71856;SDS011;63344;46.980;28.882;2023-08-24T00:47:11;11.40;;;5.95;;
71856;SDS011;63344;46.980;28.882;2023-08-24T00:49:42;11.50;;;5.57;;
71856;SDS011;63344;46.980;28.882;2023-08-24T00:52:16;8.85;;;6.05;;
71856;SDS011;63344;46.980;28.882;2023-08-24T00:54:54;12.02;;;5.65;;
71856;SDS011;63344;46.980;28.882;2023-08-24T00:57:31;9.52;;;5.43;;
71856;SDS011;63344;46.980;28.882;2023-08-24T01:00:02;8.35;;;5.50;;
71856;SDS011;63344;46.980;28.882;2023-08-24T01:02:42;9.00;;;6.00;;
71856;SDS011;63344;46.980;28.882;2023-08-24T01:05:13;7.55;;;5.22;;
71856;SDS011;63344;46.980;28.882;2023-08-24T01:07:44;10.45;;;5.70;;
71856;SDS011;63344;46.980;28.882;2023-08-24T01:11:02;8.48;;;6.22;;
71856;SDS011;63344;46.980;28.882;2023-08-24T01:13:38;7.53;;;5.32;;
71856;SDS011;63344;46.980;28.882;2023-08-24T01:16:34;9.52;;;5.03;;
71856;SDS011;63344;46.980;28.882;2023-08-24T01:19:26;8.45;;;5.72;;
71856;SDS011;63344;46.980;28.882;2023-08-24T01:22:32;11.50;;;5.90;;
71856;SDS011;63344;46.980;28.882;2023-08-24T01:25:48;10.75;;;6.05;;
71856;SDS011;63344;46.980;28.882;2023-08-24T01:28:38;9.98;;;5.50;;
71856;SDS011;63344;46.980;28.882;2023-08-24T01:31:39;10.65;;;5.50;;
71856;SDS011;63344;46.980;28.882;2023-08-24T01:34:14;14.07;;;5.95;;
71856;SDS011;63344;46.980;28.882;2023-08-24T01:36:54;15.45;;;5.65;;
71856;SDS011;63344;46.980;28.882;2023-08-24T01:43:02;16.27;;;7.00;;
71856;SDS011;63344;46.980;28.882;2023-08-24T01:46:06;10.07;;;5.97;;
71856;SDS011;63344;46.980;28.882;2023-08-24T01:48:48;8.57;;;6.13;;
71856;SDS011;63344;46.980;28.882;2023-08-24T01:51:34;12.23;;;6.82;;
71856;SDS011;63344;46.980;28.882;2023-08-24T01:54:13;9.57;;;6.07;;
71856;SDS011;63344;46.980;28.882;2023-08-24T01:56:47;9.88;;;5.10;;
71856;SDS011;63344;46.980;28.882;2023-08-24T01:59:20;10.48;;;4.97;;
71856;SDS011;63344;46.980;28.882;2023-08-24T02:01:55;13.50;;;5.55;;
71856;SDS011;63344;46.980;28.882;2023-08-24T02:04:48;10.15;;;5.78;;
71856;SDS011;63344;46.980;28.882;2023-08-24T02:07:32;10.32;;;5.70;;
71856;SDS011;63344;46.980;28.882;2023-08-24T02:10:11;13.65;;;6.60;;
71856;SDS011;63344;46.980;28.882;2023-08-24T02:12:53;7.20;;;5.22;;
71856;SDS011;63344;46.980;28.882;2023-08-24T02:15:26;9.00;;;5.18;;
71856;SDS011;63344;46.980;28.882;2023-08-24T02:18:19;9.95;;;6.00;;
71856;SDS011;63344;46.980;28.882;2023-08-24T02:20:59;9.98;;;5.47;;
71856;SDS011;63344;46.980;28.882;2023-08-24T02:23:36;12.30;;;5.95;;
71856;SDS011;63344;46.980;28.882;2023-08-24T02:26:23;9.77;;;6.07;;
71856;SDS011;63344;46.980;28.882;2023-08-24T02:28:57;9.07;;;5.28;;
71856;SDS011;63344;46.980;28.882;2023-08-24T02:31:33;14.60;;;6.20;;
71856;SDS011;63344;46.980;28.882;2023-08-24T02:34:07;9.65;;;5.45;;
71856;SDS011;63344;46.980;28.882;2023-08-24T02:36:42;11.00;;;5.35;;
71856;SDS011;63344;46.980;28.882;2023-08-24T02:39:13;9.88;;;5.82;;
71856;SDS011;63344;46.980;28.882;2023-08-24T02:41:42;10.43;;;5.82;;
71856;SDS011;63344;46.980;28.882;2023-08-24T02:44:22;10.75;;;5.85;;
71856;SDS011;63344;46.980;28.882;2023-08-24T02:47:01;10.80;;;6.25;;
71856;SDS011;63344;46.980;28.882;2023-08-24T02:49:42;12.15;;;5.95;;
71856;SDS011;63344;46.980;28.882;2023-08-24T02:52:12;10.70;;;5.45;;
71856;SDS011;63344;46.980;28.882;2023-08-24T02:54:47;11.45;;;6.05;;
71856;SDS011;63344;46.980;28.882;2023-08-24T02:57:24;13.60;;;6.15;;
71856;SDS011;63344;46.980;28.882;2023-08-24T02:59:55;9.57;;;6.75;;
71856;SDS011;63344;46.980;28.882;2023-08-24T03:02:30;16.48;;;6.22;;
71856;SDS011;63344;46.980;28.882;2023-08-24T03:05:04;12.73;;;5.90;;
71856;SDS011;63344;46.980;28.882;2023-08-24T03:08:01;11.85;;;6.25;;
71856;SDS011;63344;46.980;28.882;2023-08-24T03:10:36;10.95;;;6.50;;
71856;SDS011;63344;46.980;28.882;2023-08-24T03:13:39;13.30;;;7.22;;
71856;SDS011;63344;46.980;28.882;2023-08-24T03:16:12;12.10;;;6.50;;
71856;SDS011;63344;46.980;28.882;2023-08-24T03:18:52;13.60;;;6.43;;
71856;SDS011;63344;46.980;28.882;2023-08-24T03:21:37;11.13;;;6.78;;
71856;SDS011;63344;46.980;28.882;2023-08-24T03:24:30;15.43;;;6.55;;
71856;SDS011;63344;46.980;28.882;2023-08-24T03:27:17;11.10;;;6.97;;
71856;SDS011;63344;46.980;28.882;2023-08-24T03:29:53;13.50;;;6.80;;
71856;SDS011;63344;46.980;28.882;2023-08-24T03:33:06;10.18;;;6.28;;
71856;SDS011;63344;46.980;28.882;2023-08-24T03:35:37;12.77;;;6.90;;
71856;SDS011;63344;46.980;28.882;2023-08-24T03:38:39;11.38;;;6.45;;
71856;SDS011;63344;46.980;28.882;2023-08-24T03:41:13;12.32;;;6.28;;
71856;SDS011;63344;46.980;28.882;2023-08-24T03:43:54;9.60;;;5.53;;
71856;SDS011;63344;46.980;28.882;2023-08-24T03:46:45;14.02;;;5.93;;
71856;SDS011;63344;46.980;28.882;2023-08-24T03:49:29;15.65;;;5.93;;
71856;SDS011;63344;46.980;28.882;2023-08-24T03:52:01;10.45;;;6.30;;
71856;SDS011;63344;46.980;28.882;2023-08-24T03:54:55;11.32;;;6.00;;
71856;SDS011;63344;46.980;28.882;2023-08-24T03:57:34;10.27;;;6.43;;
71856;SDS011;63344;46.980;28.882;2023-08-24T04:00:13;10.18;;;6.07;;
71856;SDS011;63344;46.980;28.882;2023-08-24T04:02:49;11.40;;;6.63;;
71856;SDS011;63344;46.980;28.882;2023-08-24T04:06:12;9.38;;;5.82;;
71856;SDS011;63344;46.980;28.882;2023-08-24T04:09:05;15.30;;;6.78;;
71856;SDS011;63344;46.980;28.882;2023-08-24T04:11:45;9.52;;;5.85;;
71856;SDS011;63344;46.980;28.882;2023-08-24T04:29:34;8.82;;;6.13;;
71856;SDS011;63344;46.980;28.882;2023-08-24T04:33:04;9.02;;;5.88;;
71856;SDS011;63344;46.980;28.882;2023-08-24T04:35:51;14.75;;;6.43;;
71856;SDS011;63344;46.980;28.882;2023-08-24T04:52:44;9.43;;;5.22;;
71856;SDS011;63344;46.980;28.882;2023-08-24T04:55:24;9.57;;;5.03;;
71856;SDS011;63344;46.980;28.882;2023-08-24T05:32:57;7.57;;;4.75;;
71856;SDS011;63344;46.980;28.882;2023-08-24T05:47:29;6.85;;;3.83;;
71856;SDS011;63344;46.980;28.882;2023-08-24T06:01:32;7.45;;;4.18;;
71856;SDS011;63344;46.980;28.882;2023-08-24T06:08:02;8.43;;;4.22;;
71856;SDS011;63344;46.980;28.882;2023-08-24T06:14:44;9.15;;;3.85;;
71856;SDS011;63344;46.980;28.882;2023-08-24T06:21:44;6.95;;;3.42;;
71856;SDS011;63344;46.980;28.882;2023-08-24T06:24:57;7.13;;;3.70;;
71856;SDS011;63344;46.980;28.882;2023-08-24T06:34:54;8.25;;;4.32;;
71856;SDS011;63344;46.980;28.882;2023-08-24T07:25:20;10.20;;;4.38;;
71856;SDS011;63344;46.980;28.882;2023-08-24T07:28:03;7.55;;;3.88;;
71856;SDS011;63344;46.980;28.882;2023-08-24T07:30:40;6.50;;;4.88;;
71856;SDS011;63344;46.980;28.882;2023-08-24T07:52:13;5.63;;;4.50;;
71856;SDS011;63344;46.980;28.882;2023-08-24T07:55:24;5.85;;;3.78;;
71856;SDS011;63344;46.980;28.882;2023-08-24T07:58:30;9.20;;;4.70;;
71856;SDS011;63344;46.980;28.882;2023-08-24T08:05:06;9.65;;;4.60;;
71856;SDS011;63344;46.980;28.882;2023-08-24T08:07:42;11.23;;;4.55;;
71856;SDS011;63344;46.980;28.882;2023-08-24T08:18:47;9.77;;;4.55;;
71856;SDS011;63344;46.980;28.882;2023-08-24T08:21:25;5.53;;;4.35;;
71856;SDS011;63344;46.980;28.882;2023-08-24T08:59:47;6.03;;;3.90;;
71856;SDS011;63344;46.980;28.882;2023-08-24T09:10:23;4.47;;;3.30;;
71856;SDS011;63344;46.980;28.882;2023-08-24T09:13:10;3.65;;;3.35;;
71856;SDS011;63344;46.980;28.882;2023-08-24T09:48:41;4.05;;;2.85;;
71856;SDS011;63344;46.980;28.882;2023-08-24T10:04:11;3.75;;;3.10;;
71856;SDS011;63344;46.980;28.882;2023-08-24T10:10:07;4.95;;;3.72;;
71856;SDS011;63344;46.980;28.882;2023-08-24T10:24:31;4.80;;;3.80;;
71856;SDS011;63344;46.980;28.882;2023-08-24T10:31:46;4.38;;;3.05;;
71856;SDS011;63344;46.980;28.882;2023-08-24T10:34:36;4.88;;;3.55;;
71856;SDS011;63344;46.980;28.882;2023-08-24T10:45:59;5.65;;;2.70;;
71856;SDS011;63344;46.980;28.882;2023-08-24T11:10:13;5.03;;;2.90;;
71856;SDS011;63344;46.980;28.882;2023-08-24T11:28:48;3.75;;;2.75;;
71856;SDS011;63344;46.980;28.882;2023-08-24T11:31:26;7.30;;;2.63;;
71856;SDS011;63344;46.980;28.882;2023-08-24T12:07:29;4.22;;;2.63;;
71856;SDS011;63344;46.980;28.882;2023-08-24T12:10:06;3.75;;;2.83;;
71856;SDS011;63344;46.980;28.882;2023-08-24T12:13:11;3.72;;;2.17;;
71856;SDS011;63344;46.980;28.882;2023-08-24T12:23:39;3.28;;;2.60;;
71856;SDS011;63344;46.980;28.882;2023-08-24T12:55:11;5.68;;;2.22;;
71856;SDS011;63344;46.980;28.882;2023-08-24T13:11:08;5.43;;;2.92;;
71856;SDS011;63344;46.980;28.882;2023-08-24T14:05:54;3.10;;;2.40;;
71856;SDS011;63344;46.980;28.882;2023-08-24T14:12:00;4.57;;;2.47;;
71856;SDS011;63344;46.980;28.882;2023-08-24T14:14:36;2.85;;;2.25;;
71856;SDS011;63344;46.980;28.882;2023-08-24T14:17:36;3.60;;;2.72;;
71856;SDS011;63344;46.980;28.882;2023-08-24T14:20:26;2.83;;;2.58;;
71856;SDS011;63344;46.980;28.882;2023-08-24T14:45:02;4.28;;;2.42;;
71856;SDS011;63344;46.980;28.882;2023-08-24T14:52:35;5.13;;;2.92;;
71856;SDS011;63344;46.980;28.882;2023-08-24T16:14:32;7.60;;;3.22;;
71856;SDS011;63344;46.980;28.882;2023-08-24T16:45:01;6.90;;;2.40;;
71856;SDS011;63344;46.980;28.882;2023-08-24T17:48:26;5.30;;;2.58;;
71856;SDS011;63344;46.980;28.882;2023-08-24T18:08:38;4.95;;;2.25;;
71856;SDS011;63344;46.980;28.882;2023-08-24T18:25:03;4.25;;;3.17;;
71856;SDS011;63344;46.980;28.882;2023-08-24T18:27:56;6.65;;;3.38;;
71856;SDS011;63344;46.980;28.882;2023-08-24T18:30:42;6.75;;;3.72;;
71856;SDS011;63344;46.980;28.882;2023-08-24T18:40:58;4.90;;;3.13;;
71856;SDS011;63344;46.980;28.882;2023-08-24T18:43:56;7.38;;;4.30;;
71856;SDS011;63344;46.980;28.882;2023-08-24T18:47:42;5.68;;;3.60;;
71856;SDS011;63344;46.980;28.882;2023-08-24T18:50:34;6.20;;;3.72;;
71856;SDS011;63344;46.980;28.882;2023-08-24T18:53:28;6.35;;;3.70;;
71856;SDS011;63344;46.980;28.882;2023-08-24T19:09:50;10.27;;;5.00;;
71856;SDS011;63344;46.980;28.882;2023-08-24T19:16:06;7.65;;;4.55;;
71856;SDS011;63344;46.980;28.882;2023-08-24T19:26:52;6.68;;;4.43;;
71856;SDS011;63344;46.980;28.882;2023-08-24T19:29:59;8.07;;;4.18;;
71856;SDS011;63344;46.980;28.882;2023-08-24T19:37:04;7.22;;;5.20;;
71856;SDS011;63344;46.980;28.882;2023-08-24T19:40:07;7.38;;;4.45;;
71856;SDS011;63344;46.980;28.882;2023-08-24T19:47:01;9.40;;;4.43;;
71856;SDS011;63344;46.980;28.882;2023-08-24T19:53:38;9.68;;;4.55;;
71856;SDS011;63344;46.980;28.882;2023-08-24T19:56:55;8.70;;;4.60;;
71856;SDS011;63344;46.980;28.882;2023-08-24T20:07:42;7.85;;;4.82;;
71856;SDS011;63344;46.980;28.882;2023-08-24T20:13:59;7.70;;;4.88;;
71856;SDS011;63344;46.980;28.882;2023-08-24T20:17:21;6.88;;;3.97;;
71856;SDS011;63344;46.980;28.882;2023-08-24T20:20:13;6.13;;;4.18;;
71856;SDS011;63344;46.980;28.882;2023-08-24T20:23:17;9.00;;;4.93;;
71856;SDS011;63344;46.980;28.882;2023-08-24T20:26:13;9.55;;;4.80;;
71856;SDS011;63344;46.980;28.882;2023-08-24T20:28:59;10.63;;;5.47;;
71856;SDS011;63344;46.980;28.882;2023-08-24T20:35:09;8.45;;;5.75;;
71856;SDS011;63344;46.980;28.882;2023-08-24T20:38:20;7.47;;;5.15;;
71856;SDS011;63344;46.980;28.882;2023-08-24T20:41:21;7.05;;;4.82;;
71856;SDS011;63344;46.980;28.882;2023-08-24T20:44:24;7.03;;;4.95;;
71856;SDS011;63344;46.980;28.882;2023-08-24T20:50:58;8.35;;;4.93;;
71856;SDS011;63344;46.980;28.882;2023-08-24T21:00:17;8.57;;;4.53;;
71856;SDS011;63344;46.980;28.882;2023-08-24T21:06:48;7.18;;;4.63;;
71856;SDS011;63344;46.980;28.882;2023-08-24T21:09:39;9.60;;;5.20;;
71856;SDS011;63344;46.980;28.882;2023-08-24T21:12:54;7.03;;;4.63;;
71856;SDS011;63344;46.980;28.882;2023-08-24T21:16:19;9.10;;;5.15;;
71856;SDS011;63344;46.980;28.882;2023-08-24T21:19:31;9.55;;;4.85;;
71856;SDS011;63344;46.980;28.882;2023-08-24T21:25:40;10.95;;;4.72;;
71856;SDS011;63344;46.980;28.882;2023-08-24T21:31:38;7.63;;;5.28;;
71856;SDS011;63344;46.980;28.882;2023-08-24T21:34:19;10.27;;;4.97;;
71856;SDS011;63344;46.980;28.882;2023-08-24T21:36:59;9.48;;;5.57;;
71856;SDS011;63344;46.980;28.882;2023-08-24T21:40:01;6.97;;;5.00;;
71856;SDS011;63344;46.980;28.882;2023-08-24T21:42:39;7.35;;;5.13;;
71856;SDS011;63344;46.980;28.882;2023-08-24T21:48:25;6.57;;;5.22;;
71856;SDS011;63344;46.980;28.882;2023-08-24T21:57:58;9.13;;;5.57;;
71856;SDS011;63344;46.980;28.882;2023-08-24T22:00:47;10.48;;;5.70;;
71856;SDS011;63344;46.980;28.882;2023-08-24T22:04:15;10.07;;;5.88;;
71856;SDS011;63344;46.980;28.882;2023-08-24T22:11:33;8.30;;;4.88;;
71856;SDS011;63344;46.980;28.882;2023-08-24T22:14:38;8.23;;;5.30;;
71856;SDS011;63344;46.980;28.882;2023-08-24T22:17:37;13.60;;;4.90;;
71856;SDS011;63344;46.980;28.882;2023-08-24T22:20:09;8.07;;;5.50;;
71856;SDS011;63344;46.980;28.882;2023-08-24T22:23:03;11.05;;;5.82;;
71856;SDS011;63344;46.980;28.882;2023-08-24T22:25:37;10.00;;;5.63;;
71856;SDS011;63344;46.980;28.882;2023-08-24T22:28:29;9.95;;;5.07;;
71856;SDS011;63344;46.980;28.882;2023-08-24T22:31:12;13.38;;;5.38;;
71856;SDS011;63344;46.980;28.882;2023-08-24T22:33:51;8.07;;;5.03;;
71856;SDS011;63344;46.980;28.882;2023-08-24T22:39:50;6.97;;;5.45;;
71856;SDS011;63344;46.980;28.882;2023-08-24T22:46:04;8.77;;;5.80;;
71856;SDS011;63344;46.980;28.882;2023-08-24T22:48:49;10.60;;;6.03;;
71856;SDS011;63344;46.980;28.882;2023-08-24T22:51:41;13.02;;;5.82;;
71856;SDS011;63344;46.980;28.882;2023-08-24T22:54:35;10.07;;;5.40;;
71856;SDS011;63344;46.980;28.882;2023-08-24T22:57:32;7.82;;;6.10;;
71856;SDS011;63344;46.980;28.882;2023-08-24T23:00:20;16.50;;;6.20;;
71856;SDS011;63344;46.980;28.882;2023-08-24T23:03:10;9.48;;;5.70;;
71856;SDS011;63344;46.980;28.882;2023-08-24T23:06:04;6.68;;;5.35;;
71856;SDS011;63344;46.980;28.882;2023-08-24T23:09:00;11.38;;;6.30;;
71856;SDS011;63344;46.980;28.882;2023-08-24T23:12:04;8.43;;;6.13;;
71856;SDS011;63344;46.980;28.882;2023-08-24T23:15:04;14.10;;;6.13;;
71856;SDS011;63344;46.980;28.882;2023-08-24T23:17:48;14.27;;;5.90;;
71856;SDS011;63344;46.980;28.882;2023-08-24T23:20:37;11.00;;;6.20;;
71856;SDS011;63344;46.980;28.882;2023-08-24T23:23:16;8.05;;;5.68;;
71856;SDS011;63344;46.980;28.882;2023-08-24T23:26:19;9.55;;;5.43;;
71856;SDS011;63344;46.980;28.882;2023-08-24T23:28:57;9.82;;;5.43;;
71856;SDS011;63344;46.980;28.882;2023-08-24T23:31:41;10.23;;;6.50;;
71856;SDS011;63344;46.980;28.882;2023-08-24T23:34:15;9.35;;;5.75;;
71856;SDS011;63344;46.980;28.882;2023-08-24T23:36:50;13.18;;;6.45;;
71856;SDS011;63344;46.980;28.882;2023-08-24T23:39:31;19.08;;;6.30;;
71856;SDS011;63344;46.980;28.882;2023-08-24T23:42:10;9.35;;;6.13;;
71856;SDS011;63344;46.980;28.882;2023-08-24T23:44:41;8.23;;;6.15;;
71856;SDS011;63344;46.980;28.882;2023-08-24T23:47:27;9.77;;;6.18;;
71856;SDS011;63344;46.980;28.882;2023-08-24T23:50:01;9.40;;;5.70;;
71856;SDS011;63344;46.980;28.882;2023-08-24T23:52:43;12.95;;;7.00;;
71856;SDS011;63344;46.980;28.882;2023-08-24T23:55:16;9.57;;;6.38;;
71856;SDS011;63344;46.980;28.882;2023-08-24T23:58:09;12.00;;;6.57;;
